This is the latest recevied weather packets stored in our database for station/object OH5GWF-1. If no packets are shown the sender has not sent any weather packets the latest 10 day(s).
| Time | Temp. | Humidity | Pressure | Rain* | Wind** | Luminosity | Snow |
|---|---|---|---|---|---|---|---|
| 1777980608 | 12.22° C | 52% | 1002.3 hPa | 0 mm | - | - | - |
| 1777980187 | 12.22° C | 55% | 1002.2 hPa | 0 mm | - | - | - |
| 1777979763 | 12.22° C | 55% | 1002.2 hPa | 0 mm | - | - | - |
| 1777979341 | 10.56° C | 59% | 1002.1 hPa | 0 mm | - | - | - |
| 1777978930 | 11.11° C | 58% | 1001.9 hPa | 0 mm | - | - | - |
| 1777978508 | 12.78° C | 56% | 1001.8 hPa | 0 mm | - | - | - |
| 1777978087 | 13.89° C | 54% | 1001.6 hPa | 0 mm | - | - | - |
| 1777977664 | 13.33° C | 56% | 1001.6 hPa | 0 mm | - | - | - |
| 1777977242 | 13.33° C | 55% | 1001.7 hPa | 0 mm | - | - | - |
| 1777976831 | 12.22° C | 58% | 1001.7 hPa | 0 mm | - | - | - |
| 1777976408 | 11.67° C | 57% | 1001.6 hPa | 0 mm | - | - | - |
| 1777975986 | 12.78° C | 59% | 1001.4 hPa | 0 mm | - | - | - |
| 1777975563 | 11.67° C | 64% | 1001.4 hPa | 0 mm | - | - | - |
| 1777975153 | 11.11° C | 64% | 1001.3 hPa | 0 mm | - | - | - |
| 1777974731 | 10.56° C | 68% | 1001.2 hPa | 0 mm | - | - | - |
| 1777974309 | 9.44° C | 68% | 1001 hPa | 0 mm | - | - | - |
| 1777973887 | 9.44° C | 67% | 1001 hPa | 0 mm | - | - | - |
| 1777973464 | 10° C | 67% | 1000.8 hPa | 0 mm | - | - | - |
| 1777973041 | 10.56° C | 64% | 1000.7 hPa | 0 mm | - | - | - |
| 1777972632 | 11.67° C | 60% | 1000.2 hPa | 0 mm | - | - | - |
| 1777972208 | 12.22° C | 58% | 1000.2 hPa | 0 mm | - | - | - |
| 1777971786 | 13.89° C | 59% | 1000.2 hPa | 0 mm | - | - | - |
| 1777971364 | 13.89° C | 64% | 1000 hPa | 0 mm | - | - | - |
| 1777970941 | 12.78° C | 65% | 999.9 hPa | 0 mm | - | - | - |
| 1777970531 | 12.22° C | 65% | 999.9 hPa | 0 mm | - | - | - |
* Rain latest hour (hover to see other rain measurements)
** Current wind speed in m/s (hover to see current wind gust speed)